Página principal
METAR-TAF:

METAR-TAF

Aeroportos :

Kuwait, Kuwait

Aeroporto Internacional do Kuwait

latitude: 29-13N, longitude: 047-59E, altura: 55 m

Observação actual do tempo

O boletim foi feito há 5 minutos, às 15:00 UTC
Vento 12 kt de nor-noroeste
Temperatura 18°C
Humidade 34%
Pressão 1020 hPa
Visibilidade 10 km ou mais
sem nuvens abaixo de 1500 metros e sem cumulonimbus

METAR: OKBK 161500Z 34012KT CAVOK 18/02 Q1020 NOSIG

Hora: 18:05 (15:05 UTC)

Previsão

O boletim foi feito há 4 horas e 20 minutos, às 10:45 UTC
Previsão válida de 16 às 12 UTC a 17 às 18 UTC
Vento 12 kt de nor-noroeste
Visibilidade: 7000 m
Céu limpo

TAF: OKBK 161045Z 1612/1718 34012KT 7000 SKC

Observações e previsões do tempo de mais de 4000 aeroportos (mensagens METAR e TAF).

As estações disponíveis são os pontos amarelos e vermelhos sobre o mapa.

Mova o rato sobre o mapa para ver o nome da estação.

Depois clique no ponto para visualizar as observações e previsões meteorológicas.

Para alterar o mapa : clique nos botões verdes com uma cruz preta para aumentar o zoom; no botão verde com uma pitada de zoom; ou nas setas verdes para mapas adjacentes.


METAR-TAF: